sensor_id;sensor_type;location;lat;lon;timestamp;temperature;humidity
43541;DHT22;29549;40.386;-3.710;2023-04-15T00:03:04;15.80;50.40
43541;DHT22;29549;40.386;-3.710;2023-04-15T00:13:06;15.70;51.10
43541;DHT22;29549;40.386;-3.710;2023-04-15T00:23:07;15.60;51.60
43541;DHT22;29549;40.386;-3.710;2023-04-15T00:33:09;15.50;52.10
43541;DHT22;29549;40.386;-3.710;2023-04-15T00:43:10;15.40;52.40
43541;DHT22;29549;40.386;-3.710;2023-04-15T00:53:12;15.20;52.80
43541;DHT22;29549;40.386;-3.710;2023-04-15T01:03:13;15.10;52.70
43541;DHT22;29549;40.386;-3.710;2023-04-15T01:13:15;15.00;52.50
43541;DHT22;29549;40.386;-3.710;2023-04-15T01:23:16;14.80;52.60
43541;DHT22;29549;40.386;-3.710;2023-04-15T01:33:18;14.70;52.50
43541;DHT22;29549;40.386;-3.710;2023-04-15T01:43:19;14.60;52.70
43541;DHT22;29549;40.386;-3.710;2023-04-15T01:53:20;14.50;53.10
43541;DHT22;29549;40.386;-3.710;2023-04-15T02:03:22;14.50;53.10
43541;DHT22;29549;40.386;-3.710;2023-04-15T02:13:23;14.40;53.20
43541;DHT22;29549;40.386;-3.710;2023-04-15T02:23:24;14.30;53.40
43541;DHT22;29549;40.386;-3.710;2023-04-15T02:33:26;14.30;53.70
43541;DHT22;29549;40.386;-3.710;2023-04-15T02:43:27;14.20;53.70
43541;DHT22;29549;40.386;-3.710;2023-04-15T02:53:29;14.00;53.80
43541;DHT22;29549;40.386;-3.710;2023-04-15T03:03:30;14.00;53.90
43541;DHT22;29549;40.386;-3.710;2023-04-15T03:13:31;14.00;53.80
43541;DHT22;29549;40.386;-3.710;2023-04-15T03:23:32;14.00;53.70
43541;DHT22;29549;40.386;-3.710;2023-04-15T03:33:34;13.80;53.80
43541;DHT22;29549;40.386;-3.710;2023-04-15T03:43:35;13.70;53.70
43541;DHT22;29549;40.386;-3.710;2023-04-15T03:53:37;13.70;53.60
43541;DHT22;29549;40.386;-3.710;2023-04-15T04:03:38;13.60;54.00
43541;DHT22;29549;40.386;-3.710;2023-04-15T04:13:39;13.50;54.00
43541;DHT22;29549;40.386;-3.710;2023-04-15T04:23:41;13.50;54.00
43541;DHT22;29549;40.386;-3.710;2023-04-15T04:33:42;13.40;53.90
43541;DHT22;29549;40.386;-3.710;2023-04-15T04:43:44;13.40;53.80
43541;DHT22;29549;40.386;-3.710;2023-04-15T04:53:45;13.40;53.70
43541;DHT22;29549;40.386;-3.710;2023-04-15T05:03:47;13.30;53.60
43541;DHT22;29549;40.386;-3.710;2023-04-15T05:13:48;13.30;53.30
43541;DHT22;29549;40.386;-3.710;2023-04-15T05:23:51;13.20;53.50
43541;DHT22;29549;40.386;-3.710;2023-04-15T05:33:52;13.20;53.40
43541;DHT22;29549;40.386;-3.710;2023-04-15T05:43:54;13.20;53.30
43541;DHT22;29549;40.386;-3.710;2023-04-15T05:53:56;13.10;53.20
43541;DHT22;29549;40.386;-3.710;2023-04-15T06:03:57;13.10;53.10
43541;DHT22;29549;40.386;-3.710;2023-04-15T06:13:59;13.10;52.60
43541;DHT22;29549;40.386;-3.710;2023-04-15T06:24:00;13.10;52.20
43541;DHT22;29549;40.386;-3.710;2023-04-15T06:34:02;13.30;51.60
43541;DHT22;29549;40.386;-3.710;2023-04-15T06:44:03;13.40;51.20
43541;DHT22;29549;40.386;-3.710;2023-04-15T06:54:05;13.50;50.80
43541;DHT22;29549;40.386;-3.710;2023-04-15T07:04:06;13.80;49.70
43541;DHT22;29549;40.386;-3.710;2023-04-15T07:14:08;14.00;48.70
43541;DHT22;29549;40.386;-3.710;2023-04-15T07:24:09;14.40;48.20
43541;DHT22;29549;40.386;-3.710;2023-04-15T07:34:11;14.90;45.80
43541;DHT22;29549;40.386;-3.710;2023-04-15T07:44:12;15.20;44.70
43541;DHT22;29549;40.386;-3.710;2023-04-15T07:54:14;15.70;44.50
43541;DHT22;29549;40.386;-3.710;2023-04-15T08:04:16;16.10;43.70
43541;DHT22;29549;40.386;-3.710;2023-04-15T08:14:17;16.20;43.30
43541;DHT22;29549;40.386;-3.710;2023-04-15T08:24:18;16.30;43.40
43541;DHT22;29549;40.386;-3.710;2023-04-15T08:34:20;16.40;42.60
43541;DHT22;29549;40.386;-3.710;2023-04-15T08:44:23;16.50;42.70
43541;DHT22;29549;40.386;-3.710;2023-04-15T08:54:26;16.80;42.00
43541;DHT22;29549;40.386;-3.710;2023-04-15T09:04:28;17.10;41.20
43541;DHT22;29549;40.386;-3.710;2023-04-15T09:14:30;17.30;40.70
43541;DHT22;29549;40.386;-3.710;2023-04-15T09:24:38;17.40;40.20
43541;DHT22;29549;40.386;-3.710;2023-04-15T09:34:41;17.70;39.60
43541;DHT22;29549;40.386;-3.710;2023-04-15T09:44:42;18.00;38.40
43541;DHT22;29549;40.386;-3.710;2023-04-15T09:54:44;18.10;38.40
43541;DHT22;29549;40.386;-3.710;2023-04-15T10:04:47;18.20;38.10
43541;DHT22;29549;40.386;-3.710;2023-04-15T10:14:53;18.40;37.50
43541;DHT22;29549;40.386;-3.710;2023-04-15T10:24:57;18.50;37.70
43541;DHT22;29549;40.386;-3.710;2023-04-15T10:35:00;18.70;37.00
43541;DHT22;29549;40.386;-3.710;2023-04-15T10:45:02;18.70;36.80
43541;DHT22;29549;40.386;-3.710;2023-04-15T10:55:13;18.90;35.30
43541;DHT22;29549;40.386;-3.710;2023-04-15T11:05:18;19.10;36.20
43541;DHT22;29549;40.386;-3.710;2023-04-15T11:15:34;19.40;35.40
43541;DHT22;29549;40.386;-3.710;2023-04-15T11:25:37;19.60;33.70
43541;DHT22;29549;40.386;-3.710;2023-04-15T11:35:40;19.70;33.50
43541;DHT22;29549;40.386;-3.710;2023-04-15T11:55:51;20.20;33.10
43541;DHT22;29549;40.386;-3.710;2023-04-15T12:16:21;20.60;31.90
43541;DHT22;29549;40.386;-3.710;2023-04-15T12:26:34;20.70;32.30
43541;DHT22;29549;40.386;-3.710;2023-04-15T12:36:36;20.50;31.60
43541;DHT22;29549;40.386;-3.710;2023-04-15T12:46:38;20.60;31.70
43541;DHT22;29549;40.386;-3.710;2023-04-15T12:56:39;21.00;31.70
43541;DHT22;29549;40.386;-3.710;2023-04-15T13:06:41;21.20;30.80
43541;DHT22;29549;40.386;-3.710;2023-04-15T13:16:43;21.40;31.10
43541;DHT22;29549;40.386;-3.710;2023-04-15T13:26:44;21.60;30.80
43541;DHT22;29549;40.386;-3.710;2023-04-15T13:36:46;21.70;30.30
43541;DHT22;29549;40.386;-3.710;2023-04-15T13:46:47;21.80;30.20
43541;DHT22;29549;40.386;-3.710;2023-04-15T13:56:49;21.80;30.30
43541;DHT22;29549;40.386;-3.710;2023-04-15T14:06:50;21.70;30.50
43541;DHT22;29549;40.386;-3.710;2023-04-15T14:16:51;21.70;30.50
43541;DHT22;29549;40.386;-3.710;2023-04-15T14:26:53;21.90;30.30
43541;DHT22;29549;40.386;-3.710;2023-04-15T14:36:55;22.10;30.30
43541;DHT22;29549;40.386;-3.710;2023-04-15T14:46:56;22.20;29.90
43541;DHT22;29549;40.386;-3.710;2023-04-15T14:56:58;22.20;30.10
43541;DHT22;29549;40.386;-3.710;2023-04-15T15:07:00;22.30;30.60
43541;DHT22;29549;40.386;-3.710;2023-04-15T15:17:02;22.10;31.80
43541;DHT22;29549;40.386;-3.710;2023-04-15T15:27:03;22.40;31.50
43541;DHT22;29549;40.386;-3.710;2023-04-15T15:37:05;22.60;30.70
43541;DHT22;29549;40.386;-3.710;2023-04-15T15:47:07;22.70;30.20
43541;DHT22;29549;40.386;-3.710;2023-04-15T15:57:08;22.60;30.90
43541;DHT22;29549;40.386;-3.710;2023-04-15T16:07:10;22.40;31.40
43541;DHT22;29549;40.386;-3.710;2023-04-15T16:17:12;22.40;31.20
43541;DHT22;29549;40.386;-3.710;2023-04-15T16:27:13;22.50;31.20
43541;DHT22;29549;40.386;-3.710;2023-04-15T16:37:16;22.50;31.60
43541;DHT22;29549;40.386;-3.710;2023-04-15T16:47:17;22.60;31.40
43541;DHT22;29549;40.386;-3.710;2023-04-15T16:57:19;22.50;31.30
43541;DHT22;29549;40.386;-3.710;2023-04-15T17:07:20;22.50;31.20
43541;DHT22;29549;40.386;-3.710;2023-04-15T17:17:22;22.40;31.60
43541;DHT22;29549;40.386;-3.710;2023-04-15T17:27:23;22.40;31.90
43541;DHT22;29549;40.386;-3.710;2023-04-15T17:37:26;22.30;32.00
43541;DHT22;29549;40.386;-3.710;2023-04-15T17:47:28;22.30;31.80
43541;DHT22;29549;40.386;-3.710;2023-04-15T17:57:29;22.20;31.70
43541;DHT22;29549;40.386;-3.710;2023-04-15T18:07:31;21.90;32.10
43541;DHT22;29549;40.386;-3.710;2023-04-15T18:17:32;21.60;32.70
43541;DHT22;29549;40.386;-3.710;2023-04-15T18:27:35;21.50;32.80
43541;DHT22;29549;40.386;-3.710;2023-04-15T18:37:39;21.30;33.20
43541;DHT22;29549;40.386;-3.710;2023-04-15T18:47:40;21.20;33.60
43541;DHT22;29549;40.386;-3.710;2023-04-15T18:57:42;21.00;33.80
43541;DHT22;29549;40.386;-3.710;2023-04-15T19:07:46;20.90;34.10
43541;DHT22;29549;40.386;-3.710;2023-04-15T19:17:48;20.70;34.50
43541;DHT22;29549;40.386;-3.710;2023-04-15T19:27:49;20.60;34.70
43541;DHT22;29549;40.386;-3.710;2023-04-15T19:37:50;20.50;34.90
43541;DHT22;29549;40.386;-3.710;2023-04-15T19:47:52;20.40;35.20
43541;DHT22;29549;40.386;-3.710;2023-04-15T19:57:53;20.30;36.20
43541;DHT22;29549;40.386;-3.710;2023-04-15T20:07:55;20.20;36.80
43541;DHT22;29549;40.386;-3.710;2023-04-15T20:17:56;19.90;37.40
43541;DHT22;29549;40.386;-3.710;2023-04-15T20:27:58;19.70;37.80
43541;DHT22;29549;40.386;-3.710;2023-04-15T20:38:00;19.60;38.30
43541;DHT22;29549;40.386;-3.710;2023-04-15T20:48:04;19.60;38.50
43541;DHT22;29549;40.386;-3.710;2023-04-15T20:58:05;19.40;39.70
43541;DHT22;29549;40.386;-3.710;2023-04-15T21:08:07;19.00;41.10
43541;DHT22;29549;40.386;-3.710;2023-04-15T21:18:08;18.70;41.50
43541;DHT22;29549;40.386;-3.710;2023-04-15T21:28:09;18.60;41.90
43541;DHT22;29549;40.386;-3.710;2023-04-15T21:38:11;18.40;41.80
43541;DHT22;29549;40.386;-3.710;2023-04-15T21:48:12;18.20;42.20
43541;DHT22;29549;40.386;-3.710;2023-04-15T21:58:14;18.10;42.30
43541;DHT22;29549;40.386;-3.710;2023-04-15T22:08:15;17.90;42.60
43541;DHT22;29549;40.386;-3.710;2023-04-15T22:18:16;17.80;42.70
43541;DHT22;29549;40.386;-3.710;2023-04-15T22:28:18;17.70;43.00
43541;DHT22;29549;40.386;-3.710;2023-04-15T22:38:19;17.70;42.90
43541;DHT22;29549;40.386;-3.710;2023-04-15T22:48:20;17.60;42.70
43541;DHT22;29549;40.386;-3.710;2023-04-15T22:58:22;17.50;42.60
43541;DHT22;29549;40.386;-3.710;2023-04-15T23:08:24;17.50;42.60
43541;DHT22;29549;40.386;-3.710;2023-04-15T23:18:25;17.30;43.20
43541;DHT22;29549;40.386;-3.710;2023-04-15T23:28:27;17.30;43.10
43541;DHT22;29549;40.386;-3.710;2023-04-15T23:38:29;17.20;43.60
43541;DHT22;29549;40.386;-3.710;2023-04-15T23:48:30;17.00;44.00
43541;DHT22;29549;40.386;-3.710;2023-04-15T23:58:31;16.70;44.60
